Audubon, Iowa
Current Conditions -  °F | °C
As of 10:55 AM on Saturday 22 Nov 2014 (Local Time) from KADU Reporting Station
Haze Haze  
Wind Chill: 33°   Ceiling: 200
Heat Index: 41°   Visibility: 1mi
Dew Point: 36°   Wind: 16mph
Humidity: 81%   Direction: 200°SSW
Pressure: 29.82"   Gusts: 22mph
Location:  41.72°N, 94.93°W
Report Text: KADU 221655Z AUTO 20014G19KT 1SM HZ OVC002 05/02 A2982 RMK AO2
Loading
Personal Weather Stations






























Interactive Weather Map New forecast layout! Learn more

10-Day Weather Forecast

Advertisements
Track Severe Weather on mobile